sensor_id;sensor_type;location;lat;lon;timestamp;P1;durP1;ratioP1;P2;durP2;ratioP2
14165;SDS011;7162;52.422;13.754;2023-05-07T00:01:36;11.60;;;6.70;;
14165;SDS011;7162;52.422;13.754;2023-05-07T00:04:04;13.57;;;7.23;;
14165;SDS011;7162;52.422;13.754;2023-05-07T00:06:32;8.90;;;6.93;;
14165;SDS011;7162;52.422;13.754;2023-05-07T00:08:59;9.67;;;6.53;;
14165;SDS011;7162;52.422;13.754;2023-05-07T00:11:26;16.87;;;7.60;;
14165;SDS011;7162;52.422;13.754;2023-05-07T00:13:55;11.80;;;6.90;;
14165;SDS011;7162;52.422;13.754;2023-05-07T00:16:22;12.20;;;7.27;;
14165;SDS011;7162;52.422;13.754;2023-05-07T00:18:49;10.80;;;6.73;;
14165;SDS011;7162;52.422;13.754;2023-05-07T00:21:16;8.67;;;6.60;;
14165;SDS011;7162;52.422;13.754;2023-05-07T00:23:43;9.60;;;6.60;;
14165;SDS011;7162;52.422;13.754;2023-05-07T00:26:10;9.60;;;5.67;;
14165;SDS011;7162;52.422;13.754;2023-05-07T00:28:37;8.90;;;6.40;;
14165;SDS011;7162;52.422;13.754;2023-05-07T00:31:06;11.60;;;6.63;;
14165;SDS011;7162;52.422;13.754;2023-05-07T00:33:33;8.60;;;6.10;;
14165;SDS011;7162;52.422;13.754;2023-05-07T00:36:00;8.60;;;6.33;;
14165;SDS011;7162;52.422;13.754;2023-05-07T00:38:27;12.43;;;8.00;;
14165;SDS011;7162;52.422;13.754;2023-05-07T00:40:54;10.63;;;6.60;;
14165;SDS011;7162;52.422;13.754;2023-05-07T00:43:21;9.17;;;6.50;;
14165;SDS011;7162;52.422;13.754;2023-05-07T00:45:48;14.40;;;7.00;;
14165;SDS011;7162;52.422;13.754;2023-05-07T00:48:17;16.80;;;7.57;;
14165;SDS011;7162;52.422;13.754;2023-05-07T00:50:44;12.07;;;7.30;;
14165;SDS011;7162;52.422;13.754;2023-05-07T00:53:12;8.63;;;6.87;;
14165;SDS011;7162;52.422;13.754;2023-05-07T00:55:39;8.60;;;6.50;;
14165;SDS011;7162;52.422;13.754;2023-05-07T00:58:07;9.97;;;6.80;;
14165;SDS011;7162;52.422;13.754;2023-05-07T01:00:34;12.20;;;7.30;;
14165;SDS011;7162;52.422;13.754;2023-05-07T01:03:01;17.80;;;6.97;;
14165;SDS011;7162;52.422;13.754;2023-05-07T01:05:30;10.97;;;6.60;;
14165;SDS011;7162;52.422;13.754;2023-05-07T01:07:57;10.97;;;7.13;;
14165;SDS011;7162;52.422;13.754;2023-05-07T01:10:24;9.13;;;6.70;;
14165;SDS011;7162;52.422;13.754;2023-05-07T01:12:52;13.53;;;6.87;;
14165;SDS011;7162;52.422;13.754;2023-05-07T01:15:20;8.93;;;6.37;;
14165;SDS011;7162;52.422;13.754;2023-05-07T01:17:47;11.53;;;6.63;;
14165;SDS011;7162;52.422;13.754;2023-05-07T01:20:14;11.90;;;7.00;;
14165;SDS011;7162;52.422;13.754;2023-05-07T01:22:43;11.90;;;6.73;;
14165;SDS011;7162;52.422;13.754;2023-05-07T01:25:10;12.10;;;7.00;;
14165;SDS011;7162;52.422;13.754;2023-05-07T01:27:38;9.43;;;6.77;;
14165;SDS011;7162;52.422;13.754;2023-05-07T01:30:06;13.03;;;7.17;;
14165;SDS011;7162;52.422;13.754;2023-05-07T01:32:35;9.03;;;6.63;;
14165;SDS011;7162;52.422;13.754;2023-05-07T01:35:02;21.23;;;6.47;;
14165;SDS011;7162;52.422;13.754;2023-05-07T01:37:31;13.70;;;6.87;;
14165;SDS011;7162;52.422;13.754;2023-05-07T01:40:00;9.90;;;6.70;;
14165;SDS011;7162;52.422;13.754;2023-05-07T01:42:27;8.23;;;6.17;;
14165;SDS011;7162;52.422;13.754;2023-05-07T01:44:55;12.37;;;7.37;;
14165;SDS011;7162;52.422;13.754;2023-05-07T01:47:22;14.30;;;7.27;;
14165;SDS011;7162;52.422;13.754;2023-05-07T01:49:49;9.00;;;7.17;;
14165;SDS011;7162;52.422;13.754;2023-05-07T01:52:16;10.30;;;6.63;;
14165;SDS011;7162;52.422;13.754;2023-05-07T01:54:43;9.00;;;6.53;;
14165;SDS011;7162;52.422;13.754;2023-05-07T01:57:12;11.87;;;6.90;;
14165;SDS011;7162;52.422;13.754;2023-05-07T01:59:39;11.37;;;6.60;;
14165;SDS011;7162;52.422;13.754;2023-05-07T02:02:06;9.20;;;6.63;;
14165;SDS011;7162;52.422;13.754;2023-05-07T02:04:33;11.20;;;7.07;;
14165;SDS011;7162;52.422;13.754;2023-05-07T02:07:00;11.73;;;7.07;;
14165;SDS011;7162;52.422;13.754;2023-05-07T02:09:27;11.50;;;7.50;;
14165;SDS011;7162;52.422;13.754;2023-05-07T02:11:54;11.17;;;7.53;;
14165;SDS011;7162;52.422;13.754;2023-05-07T02:14:22;9.83;;;7.00;;
14165;SDS011;7162;52.422;13.754;2023-05-07T02:16:50;13.37;;;7.80;;
14165;SDS011;7162;52.422;13.754;2023-05-07T02:19:17;12.80;;;8.03;;
14165;SDS011;7162;52.422;13.754;2023-05-07T02:21:46;12.80;;;7.80;;
14165;SDS011;7162;52.422;13.754;2023-05-07T02:24:13;10.67;;;6.93;;
14165;SDS011;7162;52.422;13.754;2023-05-07T02:26:40;13.63;;;7.80;;
14165;SDS011;7162;52.422;13.754;2023-05-07T02:29:07;10.53;;;7.10;;
14165;SDS011;7162;52.422;13.754;2023-05-07T02:31:35;15.17;;;7.40;;
14165;SDS011;7162;52.422;13.754;2023-05-07T02:34:02;10.97;;;7.30;;
14165;SDS011;7162;52.422;13.754;2023-05-07T02:36:29;11.83;;;7.40;;
14165;SDS011;7162;52.422;13.754;2023-05-07T02:38:56;11.20;;;7.57;;
14165;SDS011;7162;52.422;13.754;2023-05-07T02:41:23;13.43;;;7.40;;
14165;SDS011;7162;52.422;13.754;2023-05-07T02:43:50;10.80;;;7.00;;
14165;SDS011;7162;52.422;13.754;2023-05-07T02:46:17;11.07;;;6.90;;
14165;SDS011;7162;52.422;13.754;2023-05-07T02:48:45;10.03;;;7.27;;
14165;SDS011;7162;52.422;13.754;2023-05-07T02:51:12;9.90;;;7.23;;
14165;SDS011;7162;52.422;13.754;2023-05-07T02:53:39;12.00;;;6.93;;
14165;SDS011;7162;52.422;13.754;2023-05-07T02:56:06;11.33;;;7.00;;
14165;SDS011;7162;52.422;13.754;2023-05-07T02:58:33;12.77;;;7.57;;
14165;SDS011;7162;52.422;13.754;2023-05-07T03:01:00;11.37;;;7.57;;
14165;SDS011;7162;52.422;13.754;2023-05-07T03:03:27;11.87;;;7.23;;
14165;SDS011;7162;52.422;13.754;2023-05-07T03:05:56;8.57;;;6.40;;
14165;SDS011;7162;52.422;13.754;2023-05-07T03:08:23;10.83;;;7.10;;
14165;SDS011;7162;52.422;13.754;2023-05-07T03:10:50;11.80;;;7.50;;
14165;SDS011;7162;52.422;13.754;2023-05-07T03:13:17;16.57;;;7.20;;
14165;SDS011;7162;52.422;13.754;2023-05-07T03:15:44;13.13;;;6.87;;
14165;SDS011;7162;52.422;13.754;2023-05-07T03:18:11;11.97;;;6.50;;
14165;SDS011;7162;52.422;13.754;2023-05-07T03:20:38;10.37;;;6.90;;
14165;SDS011;7162;52.422;13.754;2023-05-07T03:23:06;9.50;;;6.57;;
14165;SDS011;7162;52.422;13.754;2023-05-07T03:25:33;8.50;;;5.93;;
14165;SDS011;7162;52.422;13.754;2023-05-07T03:28:00;12.53;;;6.80;;
14165;SDS011;7162;52.422;13.754;2023-05-07T03:30:27;9.20;;;6.47;;
14165;SDS011;7162;52.422;13.754;2023-05-07T03:32:54;11.83;;;6.70;;
14165;SDS011;7162;52.422;13.754;2023-05-07T03:35:21;12.90;;;6.70;;
14165;SDS011;7162;52.422;13.754;2023-05-07T03:37:48;11.10;;;7.10;;
14165;SDS011;7162;52.422;13.754;2023-05-07T03:40:17;7.40;;;5.87;;
14165;SDS011;7162;52.422;13.754;2023-05-07T03:42:44;11.60;;;6.27;;
14165;SDS011;7162;52.422;13.754;2023-05-07T03:45:11;14.67;;;6.70;;
14165;SDS011;7162;52.422;13.754;2023-05-07T03:47:38;8.47;;;5.77;;
14165;SDS011;7162;52.422;13.754;2023-05-07T03:50:05;12.10;;;6.00;;
14165;SDS011;7162;52.422;13.754;2023-05-07T03:52:32;13.70;;;7.20;;
14165;SDS011;7162;52.422;13.754;2023-05-07T03:54:59;14.73;;;7.13;;
14165;SDS011;7162;52.422;13.754;2023-05-07T03:57:27;12.13;;;6.87;;
14165;SDS011;7162;52.422;13.754;2023-05-07T03:59:54;9.33;;;6.60;;
14165;SDS011;7162;52.422;13.754;2023-05-07T04:02:21;10.20;;;6.27;;
14165;SDS011;7162;52.422;13.754;2023-05-07T04:04:48;10.33;;;6.60;;
14165;SDS011;7162;52.422;13.754;2023-05-07T04:07:15;11.53;;;6.90;;
14165;SDS011;7162;52.422;13.754;2023-05-07T04:09:42;8.40;;;5.80;;
14165;SDS011;7162;52.422;13.754;2023-05-07T04:12:09;14.17;;;6.97;;
14165;SDS011;7162;52.422;13.754;2023-05-07T04:14:37;9.80;;;6.43;;
14165;SDS011;7162;52.422;13.754;2023-05-07T04:17:04;10.63;;;6.57;;
14165;SDS011;7162;52.422;13.754;2023-05-07T04:19:32;12.90;;;6.60;;
14165;SDS011;7162;52.422;13.754;2023-05-07T04:21:59;9.83;;;6.80;;
14165;SDS011;7162;52.422;13.754;2023-05-07T04:24:26;10.20;;;6.50;;
14165;SDS011;7162;52.422;13.754;2023-05-07T04:26:53;9.00;;;6.23;;
14165;SDS011;7162;52.422;13.754;2023-05-07T04:29:20;8.00;;;5.83;;
14165;SDS011;7162;52.422;13.754;2023-05-07T04:31:48;11.70;;;5.80;;
14165;SDS011;7162;52.422;13.754;2023-05-07T04:34:15;10.33;;;6.03;;
14165;SDS011;7162;52.422;13.754;2023-05-07T04:36:42;9.57;;;5.30;;
14165;SDS011;7162;52.422;13.754;2023-05-07T04:39:09;9.70;;;5.83;;
14165;SDS011;7162;52.422;13.754;2023-05-07T04:41:37;16.60;;;5.37;;
14165;SDS011;7162;52.422;13.754;2023-05-07T04:44:04;7.37;;;5.40;;
14165;SDS011;7162;52.422;13.754;2023-05-07T04:46:31;7.60;;;5.47;;
14165;SDS011;7162;52.422;13.754;2023-05-07T04:48:59;10.60;;;5.77;;
14165;SDS011;7162;52.422;13.754;2023-05-07T04:51:27;7.30;;;5.97;;
14165;SDS011;7162;52.422;13.754;2023-05-07T04:53:53;7.17;;;5.43;;
14165;SDS011;7162;52.422;13.754;2023-05-07T04:56:20;6.47;;;5.27;;
14165;SDS011;7162;52.422;13.754;2023-05-07T04:58:47;7.70;;;5.40;;
14165;SDS011;7162;52.422;13.754;2023-05-07T05:01:14;8.10;;;5.33;;
14165;SDS011;7162;52.422;13.754;2023-05-07T05:03:41;7.67;;;5.13;;
14165;SDS011;7162;52.422;13.754;2023-05-07T05:06:10;6.90;;;4.67;;
14165;SDS011;7162;52.422;13.754;2023-05-07T05:08:37;8.70;;;5.00;;
14165;SDS011;7162;52.422;13.754;2023-05-07T05:11:04;9.30;;;5.80;;
14165;SDS011;7162;52.422;13.754;2023-05-07T05:13:31;10.83;;;5.93;;
14165;SDS011;7162;52.422;13.754;2023-05-07T05:15:58;13.97;;;6.00;;
14165;SDS011;7162;52.422;13.754;2023-05-07T05:18:25;7.70;;;5.67;;
14165;SDS011;7162;52.422;13.754;2023-05-07T05:20:52;9.70;;;4.97;;
14165;SDS011;7162;52.422;13.754;2023-05-07T05:23:20;8.90;;;5.60;;
14165;SDS011;7162;52.422;13.754;2023-05-07T05:25:47;7.60;;;5.60;;
14165;SDS011;7162;52.422;13.754;2023-05-07T05:28:14;8.30;;;5.07;;
14165;SDS011;7162;52.422;13.754;2023-05-07T05:30:41;8.00;;;5.20;;
14165;SDS011;7162;52.422;13.754;2023-05-07T05:33:08;9.50;;;5.60;;
14165;SDS011;7162;52.422;13.754;2023-05-07T05:35:35;10.63;;;5.20;;
14165;SDS011;7162;52.422;13.754;2023-05-07T05:38:02;7.30;;;5.27;;
14165;SDS011;7162;52.422;13.754;2023-05-07T05:40:31;6.70;;;4.87;;
14165;SDS011;7162;52.422;13.754;2023-05-07T05:42:58;10.17;;;5.33;;
14165;SDS011;7162;52.422;13.754;2023-05-07T05:45:25;12.20;;;5.40;;
14165;SDS011;7162;52.422;13.754;2023-05-07T05:47:52;11.43;;;5.73;;
14165;SDS011;7162;52.422;13.754;2023-05-07T05:50:19;9.03;;;5.20;;
14165;SDS011;7162;52.422;13.754;2023-05-07T05:52:46;6.13;;;4.77;;
14165;SDS011;7162;52.422;13.754;2023-05-07T05:55:13;9.60;;;4.67;;
14165;SDS011;7162;52.422;13.754;2023-05-07T05:57:42;6.30;;;5.07;;
14165;SDS011;7162;52.422;13.754;2023-05-07T06:00:09;6.57;;;5.00;;
14165;SDS011;7162;52.422;13.754;2023-05-07T06:02:36;7.30;;;4.83;;
14165;SDS011;7162;52.422;13.754;2023-05-07T06:05:04;10.40;;;5.10;;
14165;SDS011;7162;52.422;13.754;2023-05-07T06:07:31;7.87;;;5.03;;
14165;SDS011;7162;52.422;13.754;2023-05-07T06:09:58;7.70;;;4.67;;
14165;SDS011;7162;52.422;13.754;2023-05-07T06:12:25;10.93;;;5.87;;
14165;SDS011;7162;52.422;13.754;2023-05-07T06:14:53;17.27;;;7.63;;
14165;SDS011;7162;52.422;13.754;2023-05-07T06:17:20;9.43;;;6.87;;
14165;SDS011;7162;52.422;13.754;2023-05-07T06:19:47;8.50;;;5.53;;
14165;SDS011;7162;52.422;13.754;2023-05-07T06:22:14;6.00;;;4.83;;
14165;SDS011;7162;52.422;13.754;2023-05-07T06:24:41;6.70;;;4.73;;
14165;SDS011;7162;52.422;13.754;2023-05-07T06:27:08;7.53;;;5.40;;
14165;SDS011;7162;52.422;13.754;2023-05-07T06:29:35;10.23;;;5.43;;
14165;SDS011;7162;52.422;13.754;2023-05-07T06:32:10;7.20;;;4.50;;
14165;SDS011;7162;52.422;13.754;2023-05-07T06:34:37;9.30;;;4.00;;
14165;SDS011;7162;52.422;13.754;2023-05-07T06:37:05;7.93;;;4.30;;
14165;SDS011;7162;52.422;13.754;2023-05-07T06:39:32;6.73;;;4.37;;
14165;SDS011;7162;52.422;13.754;2023-05-07T06:41:59;8.40;;;4.90;;
14165;SDS011;7162;52.422;13.754;2023-05-07T06:44:26;6.60;;;4.27;;
14165;SDS011;7162;52.422;13.754;2023-05-07T06:46:53;6.10;;;3.60;;
14165;SDS011;7162;52.422;13.754;2023-05-07T06:49:22;7.30;;;5.00;;
14165;SDS011;7162;52.422;13.754;2023-05-07T06:51:49;10.93;;;5.00;;
14165;SDS011;7162;52.422;13.754;2023-05-07T06:54:16;5.47;;;4.40;;
14165;SDS011;7162;52.422;13.754;2023-05-07T06:56:43;8.27;;;4.47;;
14165;SDS011;7162;52.422;13.754;2023-05-07T06:59:10;7.00;;;4.50;;
14165;SDS011;7162;52.422;13.754;2023-05-07T07:01:36;6.67;;;4.23;;
14165;SDS011;7162;52.422;13.754;2023-05-07T07:04:04;7.50;;;4.73;;
14165;SDS011;7162;52.422;13.754;2023-05-07T07:06:32;9.03;;;4.40;;
14165;SDS011;7162;52.422;13.754;2023-05-07T07:08:59;5.90;;;4.40;;
14165;SDS011;7162;52.422;13.754;2023-05-07T07:11:26;5.07;;;3.90;;
14165;SDS011;7162;52.422;13.754;2023-05-07T07:13:54;6.73;;;4.60;;
14165;SDS011;7162;52.422;13.754;2023-05-07T07:16:21;9.30;;;4.60;;
14165;SDS011;7162;52.422;13.754;2023-05-07T07:18:48;4.60;;;3.40;;
14165;SDS011;7162;52.422;13.754;2023-05-07T07:21:15;8.00;;;3.67;;
14165;SDS011;7162;52.422;13.754;2023-05-07T07:23:44;4.97;;;3.57;;
14165;SDS011;7162;52.422;13.754;2023-05-07T07:26:11;7.77;;;4.47;;
14165;SDS011;7162;52.422;13.754;2023-05-07T07:28:42;5.70;;;4.20;;
14165;SDS011;7162;52.422;13.754;2023-05-07T07:31:09;4.70;;;3.67;;
14165;SDS011;7162;52.422;13.754;2023-05-07T07:33:36;7.10;;;4.10;;
14165;SDS011;7162;52.422;13.754;2023-05-07T07:36:04;6.53;;;3.73;;
14165;SDS011;7162;52.422;13.754;2023-05-07T07:38:31;9.57;;;3.60;;
14165;SDS011;7162;52.422;13.754;2023-05-07T07:40:59;4.20;;;3.63;;
14165;SDS011;7162;52.422;13.754;2023-05-07T07:43:27;3.77;;;3.10;;
14165;SDS011;7162;52.422;13.754;2023-05-07T07:45:54;4.90;;;3.70;;
14165;SDS011;7162;52.422;13.754;2023-05-07T07:48:21;6.40;;;3.87;;
14165;SDS011;7162;52.422;13.754;2023-05-07T07:50:48;7.37;;;4.50;;
14165;SDS011;7162;52.422;13.754;2023-05-07T07:53:16;5.37;;;3.20;;
14165;SDS011;7162;52.422;13.754;2023-05-07T07:55:43;6.47;;;4.00;;
14165;SDS011;7162;52.422;13.754;2023-05-07T07:58:11;13.90;;;6.67;;
14165;SDS011;7162;52.422;13.754;2023-05-07T08:00:38;8.40;;;4.60;;
14165;SDS011;7162;52.422;13.754;2023-05-07T08:03:05;4.80;;;3.80;;
14165;SDS011;7162;52.422;13.754;2023-05-07T08:05:32;3.90;;;3.30;;
14165;SDS011;7162;52.422;13.754;2023-05-07T08:07:59;5.30;;;2.40;;
14165;SDS011;7162;52.422;13.754;2023-05-07T08:10:26;3.57;;;2.43;;
14165;SDS011;7162;52.422;13.754;2023-05-07T08:12:53;3.40;;;3.07;;
14165;SDS011;7162;52.422;13.754;2023-05-07T08:15:21;5.93;;;3.00;;
14165;SDS011;7162;52.422;13.754;2023-05-07T08:17:49;7.33;;;4.50;;
14165;SDS011;7162;52.422;13.754;2023-05-07T08:20:16;6.83;;;3.67;;
14165;SDS011;7162;52.422;13.754;2023-05-07T08:22:43;2.43;;;2.23;;
14165;SDS011;7162;52.422;13.754;2023-05-07T08:25:10;4.63;;;3.63;;
14165;SDS011;7162;52.422;13.754;2023-05-07T08:27:36;4.77;;;3.53;;
14165;SDS011;7162;52.422;13.754;2023-05-07T08:30:04;3.27;;;2.50;;
14165;SDS011;7162;52.422;13.754;2023-05-07T08:32:32;3.63;;;3.03;;
14165;SDS011;7162;52.422;13.754;2023-05-07T08:34:59;3.83;;;3.33;;
14165;SDS011;7162;52.422;13.754;2023-05-07T08:37:26;5.57;;;3.10;;
14165;SDS011;7162;52.422;13.754;2023-05-07T08:39:53;5.90;;;2.87;;
14165;SDS011;7162;52.422;13.754;2023-05-07T08:42:20;7.90;;;2.50;;
14165;SDS011;7162;52.422;13.754;2023-05-07T08:44:50;2.90;;;2.47;;
14165;SDS011;7162;52.422;13.754;2023-05-07T08:47:19;3.90;;;3.03;;
14165;SDS011;7162;52.422;13.754;2023-05-07T08:49:48;12.93;;;5.80;;
14165;SDS011;7162;52.422;13.754;2023-05-07T08:52:15;7.63;;;4.73;;
14165;SDS011;7162;52.422;13.754;2023-05-07T08:54:44;5.10;;;3.03;;
14165;SDS011;7162;52.422;13.754;2023-05-07T08:57:12;6.63;;;2.87;;
14165;SDS011;7162;52.422;13.754;2023-05-07T08:59:39;9.90;;;2.70;;
14165;SDS011;7162;52.422;13.754;2023-05-07T09:02:06;4.50;;;3.30;;
14165;SDS011;7162;52.422;13.754;2023-05-07T09:04:34;2.53;;;2.33;;
14165;SDS011;7162;52.422;13.754;2023-05-07T09:07:03;4.23;;;2.80;;
14165;SDS011;7162;52.422;13.754;2023-05-07T09:09:31;10.70;;;4.83;;
14165;SDS011;7162;52.422;13.754;2023-05-07T09:11:58;3.47;;;3.10;;
14165;SDS011;7162;52.422;13.754;2023-05-07T09:14:27;4.90;;;3.33;;
14165;SDS011;7162;52.422;13.754;2023-05-07T09:16:54;4.10;;;3.07;;
14165;SDS011;7162;52.422;13.754;2023-05-07T09:19:22;5.47;;;3.70;;
14165;SDS011;7162;52.422;13.754;2023-05-07T09:21:49;4.80;;;3.03;;
14165;SDS011;7162;52.422;13.754;2023-05-07T09:24:17;3.10;;;2.13;;
14165;SDS011;7162;52.422;13.754;2023-05-07T09:26:44;3.70;;;2.07;;
14165;SDS011;7162;52.422;13.754;2023-05-07T09:29:11;2.00;;;1.80;;
14165;SDS011;7162;52.422;13.754;2023-05-07T09:31:38;3.37;;;1.60;;
14165;SDS011;7162;52.422;13.754;2023-05-07T09:34:05;2.00;;;1.60;;
14165;SDS011;7162;52.422;13.754;2023-05-07T09:36:33;2.93;;;1.80;;
14165;SDS011;7162;52.422;13.754;2023-05-07T09:39:00;2.40;;;2.00;;
14165;SDS011;7162;52.422;13.754;2023-05-07T09:41:28;6.33;;;3.30;;
14165;SDS011;7162;52.422;13.754;2023-05-07T09:43:57;2.53;;;2.20;;
14165;SDS011;7162;52.422;13.754;2023-05-07T09:46:25;5.43;;;2.80;;
14165;SDS011;7162;52.422;13.754;2023-05-07T09:48:55;2.43;;;2.03;;
14165;SDS011;7162;52.422;13.754;2023-05-07T09:51:24;7.90;;;1.60;;
14165;SDS011;7162;52.422;13.754;2023-05-07T09:53:52;2.00;;;1.47;;
14165;SDS011;7162;52.422;13.754;2023-05-07T09:56:20;4.00;;;1.60;;
14165;SDS011;7162;52.422;13.754;2023-05-07T09:58:49;6.10;;;3.90;;
14165;SDS011;7162;52.422;13.754;2023-05-07T10:01:16;2.80;;;2.40;;
14165;SDS011;7162;52.422;13.754;2023-05-07T10:03:47;2.93;;;2.53;;
14165;SDS011;7162;52.422;13.754;2023-05-07T10:06:15;3.47;;;2.33;;
14165;SDS011;7162;52.422;13.754;2023-05-07T10:08:42;2.10;;;1.90;;
14165;SDS011;7162;52.422;13.754;2023-05-07T10:11:10;4.20;;;1.53;;
14165;SDS011;7162;52.422;13.754;2023-05-07T10:13:37;2.20;;;1.70;;
14165;SDS011;7162;52.422;13.754;2023-05-07T10:16:06;3.30;;;1.67;;
14165;SDS011;7162;52.422;13.754;2023-05-07T10:18:33;19.57;;;6.63;;
14165;SDS011;7162;52.422;13.754;2023-05-07T10:21:02;4.27;;;2.63;;
14165;SDS011;7162;52.422;13.754;2023-05-07T10:23:29;2.13;;;1.90;;
14165;SDS011;7162;52.422;13.754;2023-05-07T10:25:58;6.30;;;1.83;;
14165;SDS011;7162;52.422;13.754;2023-05-07T10:28:26;10.70;;;3.17;;
14165;SDS011;7162;52.422;13.754;2023-05-07T10:30:58;4.27;;;2.87;;
14165;SDS011;7162;52.422;13.754;2023-05-07T10:33:28;1.87;;;1.77;;
14165;SDS011;7162;52.422;13.754;2023-05-07T10:35:57;2.03;;;1.83;;
14165;SDS011;7162;52.422;13.754;2023-05-07T10:38:24;2.23;;;1.80;;
14165;SDS011;7162;52.422;13.754;2023-05-07T10:40:51;1.60;;;1.50;;
14165;SDS011;7162;52.422;13.754;2023-05-07T10:43:18;3.37;;;1.53;;
14165;SDS011;7162;52.422;13.754;2023-05-07T10:45:58;2.27;;;2.07;;
14165;SDS011;7162;52.422;13.754;2023-05-07T10:48:39;3.83;;;1.90;;
14165;SDS011;7162;52.422;13.754;2023-05-07T10:51:32;3.50;;;2.53;;
14165;SDS011;7162;52.422;13.754;2023-05-07T10:54:18;4.10;;;1.77;;
14165;SDS011;7162;52.422;13.754;2023-05-07T10:56:45;3.70;;;2.00;;
14165;SDS011;7162;52.422;13.754;2023-05-07T10:59:31;4.17;;;2.53;;
14165;SDS011;7162;52.422;13.754;2023-05-07T11:01:59;2.80;;;1.57;;
14165;SDS011;7162;52.422;13.754;2023-05-07T11:04:28;7.83;;;1.80;;
14165;SDS011;7162;52.422;13.754;2023-05-07T11:09:59;2.33;;;1.60;;
14165;SDS011;7162;52.422;13.754;2023-05-07T11:12:47;2.40;;;1.77;;
14165;SDS011;7162;52.422;13.754;2023-05-07T11:15:15;4.53;;;2.33;;
14165;SDS011;7162;52.422;13.754;2023-05-07T11:17:58;2.33;;;2.00;;
14165;SDS011;7162;52.422;13.754;2023-05-07T11:23:12;1.50;;;1.40;;
14165;SDS011;7162;52.422;13.754;2023-05-07T11:25:59;3.73;;;2.33;;
14165;SDS011;7162;52.422;13.754;2023-05-07T11:28:27;1.97;;;1.80;;
14165;SDS011;7162;52.422;13.754;2023-05-07T11:30:54;8.10;;;2.20;;
14165;SDS011;7162;52.422;13.754;2023-05-07T11:33:24;2.67;;;2.10;;
14165;SDS011;7162;52.422;13.754;2023-05-07T11:35:52;1.60;;;1.43;;
14165;SDS011;7162;52.422;13.754;2023-05-07T11:38:20;1.63;;;1.53;;
14165;SDS011;7162;52.422;13.754;2023-05-07T11:40:50;2.13;;;1.93;;
14165;SDS011;7162;52.422;13.754;2023-05-07T11:43:21;3.83;;;1.80;;
14165;SDS011;7162;52.422;13.754;2023-05-07T11:45:48;3.07;;;1.70;;
14165;SDS011;7162;52.422;13.754;2023-05-07T11:48:16;2.50;;;2.17;;
14165;SDS011;7162;52.422;13.754;2023-05-07T11:50:50;4.13;;;1.57;;
14165;SDS011;7162;52.422;13.754;2023-05-07T11:53:17;3.90;;;3.03;;
14165;SDS011;7162;52.422;13.754;2023-05-07T11:55:45;4.50;;;3.33;;
14165;SDS011;7162;52.422;13.754;2023-05-07T11:58:15;15.80;;;8.03;;
14165;SDS011;7162;52.422;13.754;2023-05-07T12:00:51;2.40;;;2.13;;
14165;SDS011;7162;52.422;13.754;2023-05-07T12:03:18;2.43;;;2.10;;
14165;SDS011;7162;52.422;13.754;2023-05-07T12:05:45;4.50;;;2.30;;
14165;SDS011;7162;52.422;13.754;2023-05-07T12:08:13;1.73;;;1.63;;
14165;SDS011;7162;52.422;13.754;2023-05-07T12:10:41;1.93;;;1.73;;
14165;SDS011;7162;52.422;13.754;2023-05-07T12:13:13;3.10;;;2.13;;
14165;SDS011;7162;52.422;13.754;2023-05-07T12:15:40;3.80;;;2.20;;
14165;SDS011;7162;52.422;13.754;2023-05-07T12:18:09;3.00;;;1.87;;
14165;SDS011;7162;52.422;13.754;2023-05-07T12:20:36;1.87;;;1.50;;
14165;SDS011;7162;52.422;13.754;2023-05-07T12:23:03;3.17;;;2.03;;
14165;SDS011;7162;52.422;13.754;2023-05-07T12:25:30;7.60;;;2.70;;
14165;SDS011;7162;52.422;13.754;2023-05-07T12:27:59;2.40;;;1.90;;
14165;SDS011;7162;52.422;13.754;2023-05-07T12:30:26;3.73;;;2.33;;
14165;SDS011;7162;52.422;13.754;2023-05-07T12:32:55;2.80;;;2.27;;
14165;SDS011;7162;52.422;13.754;2023-05-07T12:35:29;2.70;;;1.70;;
14165;SDS011;7162;52.422;13.754;2023-05-07T12:37:57;4.00;;;2.00;;
14165;SDS011;7162;52.422;13.754;2023-05-07T12:40:29;4.47;;;3.53;;
14165;SDS011;7162;52.422;13.754;2023-05-07T12:43:01;1.40;;;1.30;;
14165;SDS011;7162;52.422;13.754;2023-05-07T12:45:28;4.10;;;2.27;;
14165;SDS011;7162;52.422;13.754;2023-05-07T12:47:55;2.20;;;1.37;;
14165;SDS011;7162;52.422;13.754;2023-05-07T12:50:22;2.63;;;1.60;;
14165;SDS011;7162;52.422;13.754;2023-05-07T12:52:51;1.50;;;1.40;;
14165;SDS011;7162;52.422;13.754;2023-05-07T12:55:18;1.83;;;1.67;;
14165;SDS011;7162;52.422;13.754;2023-05-07T12:57:45;5.90;;;1.40;;
14165;SDS011;7162;52.422;13.754;2023-05-07T13:00:15;2.60;;;1.93;;
14165;SDS011;7162;52.422;13.754;2023-05-07T13:02:43;2.00;;;1.40;;
14165;SDS011;7162;52.422;13.754;2023-05-07T13:05:10;4.70;;;1.77;;
14165;SDS011;7162;52.422;13.754;2023-05-07T13:07:37;2.73;;;2.00;;
14165;SDS011;7162;52.422;13.754;2023-05-07T13:10:07;2.60;;;2.13;;
14165;SDS011;7162;52.422;13.754;2023-05-07T13:12:34;3.50;;;1.63;;
14165;SDS011;7162;52.422;13.754;2023-05-07T13:15:02;3.43;;;1.70;;
14165;SDS011;7162;52.422;13.754;2023-05-07T13:17:29;1.30;;;1.20;;
14165;SDS011;7162;52.422;13.754;2023-05-07T13:19:57;3.10;;;1.57;;
14165;SDS011;7162;52.422;13.754;2023-05-07T13:22:24;1.73;;;1.40;;
14165;SDS011;7162;52.422;13.754;2023-05-07T13:24:51;1.90;;;1.40;;
14165;SDS011;7162;52.422;13.754;2023-05-07T13:27:19;2.40;;;1.90;;
14165;SDS011;7162;52.422;13.754;2023-05-07T13:29:46;2.20;;;2.00;;
14165;SDS011;7162;52.422;13.754;2023-05-07T13:32:13;2.50;;;2.00;;
14165;SDS011;7162;52.422;13.754;2023-05-07T13:34:40;2.80;;;1.93;;
14165;SDS011;7162;52.422;13.754;2023-05-07T13:37:07;2.03;;;1.30;;
14165;SDS011;7162;52.422;13.754;2023-05-07T13:39:34;1.30;;;1.20;;
14165;SDS011;7162;52.422;13.754;2023-05-07T13:42:01;6.03;;;1.30;;
14165;SDS011;7162;52.422;13.754;2023-05-07T13:44:30;1.70;;;1.60;;
14165;SDS011;7162;52.422;13.754;2023-05-07T13:46:57;3.43;;;2.27;;
14165;SDS011;7162;52.422;13.754;2023-05-07T13:49:24;2.00;;;1.50;;
14165;SDS011;7162;52.422;13.754;2023-05-07T13:51:51;4.10;;;1.53;;
14165;SDS011;7162;52.422;13.754;2023-05-07T13:54:18;5.17;;;3.50;;
14165;SDS011;7162;52.422;13.754;2023-05-07T13:56:45;2.70;;;1.87;;
14165;SDS011;7162;52.422;13.754;2023-05-07T13:59:12;6.20;;;4.37;;
14165;SDS011;7162;52.422;13.754;2023-05-07T14:01:42;2.23;;;1.70;;
14165;SDS011;7162;52.422;13.754;2023-05-07T14:04:12;1.97;;;1.50;;
14165;SDS011;7162;52.422;13.754;2023-05-07T14:06:39;3.37;;;1.30;;
14165;SDS011;7162;52.422;13.754;2023-05-07T14:09:06;3.27;;;1.60;;
14165;SDS011;7162;52.422;13.754;2023-05-07T14:11:33;1.83;;;1.70;;
14165;SDS011;7162;52.422;13.754;2023-05-07T14:14:00;4.87;;;4.17;;
14165;SDS011;7162;52.422;13.754;2023-05-07T14:16:27;2.87;;;2.00;;
14165;SDS011;7162;52.422;13.754;2023-05-07T14:18:56;2.23;;;1.20;;
14165;SDS011;7162;52.422;13.754;2023-05-07T14:21:23;1.57;;;1.30;;
14165;SDS011;7162;52.422;13.754;2023-05-07T14:23:50;1.40;;;1.30;;
14165;SDS011;7162;52.422;13.754;2023-05-07T14:26:21;2.07;;;1.23;;
14165;SDS011;7162;52.422;13.754;2023-05-07T14:28:48;1.40;;;1.30;;
14165;SDS011;7162;52.422;13.754;2023-05-07T14:31:16;1.70;;;1.60;;
14165;SDS011;7162;52.422;13.754;2023-05-07T14:33:43;3.33;;;1.37;;
14165;SDS011;7162;52.422;13.754;2023-05-07T14:36:11;2.60;;;1.80;;
14165;SDS011;7162;52.422;13.754;2023-05-07T14:38:40;4.17;;;1.80;;
14165;SDS011;7162;52.422;13.754;2023-05-07T14:41:07;1.13;;;1.03;;
14165;SDS011;7162;52.422;13.754;2023-05-07T14:43:34;4.83;;;1.40;;
14165;SDS011;7162;52.422;13.754;2023-05-07T14:46:01;1.63;;;1.10;;
14165;SDS011;7162;52.422;13.754;2023-05-07T14:48:28;1.53;;;1.30;;
14165;SDS011;7162;52.422;13.754;2023-05-07T14:50:55;8.20;;;5.67;;
14165;SDS011;7162;52.422;13.754;2023-05-07T14:53:23;2.60;;;2.03;;